Time;durP1;ratioP1;P1;durP2;ratioP2;P2;SDS_P1;SDS_P2;PMS_P1;PMS_P2;Temp;Humidity;BMP_temperature;BMP_pressure;BME280_temperature;BME280_humidity;BME280_pressure;Samples;Min_cycle;Max_cycle;Signal;HPM_P1;HPM_P2
2022/06/06 00:00:50;;;;;;;15.80;13.37;;;22.90;76.30;;;;;;4992274;28;20034;-59
2022/06/06 00:03:17;;;;;;;20.27;13.70;;;22.90;76.90;;;;;;4992209;28;20444;-60
2022/06/06 00:05:48;;;;;;;25.75;13.20;;;22.90;77.60;;;;;;5004308;28;20052;-60
2022/06/06 00:08:15;;;;;;;18.20;13.77;;;22.90;77.50;;;;;;4982872;28;20397;-59
2022/06/06 00:10:42;;;;;;;16.23;13.98;;;22.90;77.20;;;;;;4992307;28;20025;-55
2022/06/06 00:13:10;;;;;;;22.02;14.52;;;22.90;77.00;;;;;;4992569;28;20125;-60
2022/06/06 00:15:36;;;;;;;20.15;13.75;;;22.90;76.50;;;;;;4992054;28;20038;-59
2022/06/06 00:18:03;;;;;;;25.07;15.17;;;22.80;76.30;;;;;;4992289;28;20019;-60
2022/06/06 00:20:30;;;;;;;18.20;15.38;;;22.90;76.00;;;;;;4995228;28;20061;-60
2022/06/06 00:23:00;;;;;;;23.00;14.52;;;22.90;76.90;;;;;;4995345;28;20495;-59
2022/06/06 00:25:27;;;;;;;19.90;14.07;;;22.90;76.60;;;;;;4991917;28;20050;-58
2022/06/06 00:27:53;;;;;;;19.85;14.30;;;22.90;76.10;;;;;;4992051;28;20038;-58
2022/06/06 00:30:19;;;;;;;18.17;14.10;;;22.90;76.10;;;;;;4992068;28;20023;-60
2022/06/06 00:35:29;;;;;;;24.33;14.48;;;23.00;74.50;;;;;;5004417;28;20064;-58
2022/06/06 00:37:56;;;;;;;21.00;13.60;;;22.90;74.60;;;;;;5002358;28;20057;-57
2022/06/06 00:40:23;;;;;;;20.23;13.98;;;22.90;74.90;;;;;;4995913;28;20034;-60
2022/06/06 00:42:49;;;;;;;18.50;14.45;;;22.80;74.70;;;;;;4995725;28;20080;-57
2022/06/06 00:45:21;;;;;;;23.10;14.83;;;22.80;74.90;;;;;;4995586;28;20026;-58
2022/06/06 00:47:48;;;;;;;28.25;16.50;;;22.80;74.90;;;;;;4995718;28;20030;-59
2022/06/06 00:50:18;;;;;;;23.10;14.73;;;22.80;74.90;;;;;;4995324;28;20441;-59
2022/06/06 00:52:47;;;;;;;17.20;14.50;;;22.80;74.40;;;;;;4989280;28;20030;-59
2022/06/06 00:55:17;;;;;;;20.45;14.60;;;22.80;74.70;;;;;;4995386;28;20120;-59
2022/06/06 00:57:50;;;;;;;20.35;14.63;;;22.80;74.70;;;;;;4995557;28;20097;-60
2022/06/06 01:00:20;;;;;;;28.38;16.35;;;22.80;74.40;;;;;;4985284;28;20026;-60
2022/06/06 01:02:48;;;;;;;23.33;13.48;;;22.70;75.10;;;;;;4995363;28;20460;-59
2022/06/06 01:05:15;;;;;;;19.90;14.10;;;22.60;75.80;;;;;;5002156;28;20034;-60
2022/06/06 01:07:41;;;;;;;;;;;22.60;75.90;;;;;;5009447;28;20034;-60
2022/06/06 01:10:07;;;;;;;22.08;14.27;;;22.40;76.10;;;;;;4995287;28;19945;-58
2022/06/06 01:12:33;;;;;;;21.08;14.82;;;22.50;75.90;;;;;;4996270;28;20113;-59
2022/06/06 01:15:04;;;;;;;21.98;15.45;;;22.50;75.60;;;;;;4994976;28;20014;-59
2022/06/06 01:17:46;;;;;;;18.77;14.20;;;22.50;75.40;;;;;;4995293;28;20037;-59
2022/06/06 01:20:15;;;;;;;23.63;15.30;;;22.50;75.70;;;;;;5011339;28;20104;-59
2022/06/06 01:23:11;;;;;;;20.00;14.85;;;22.40;75.30;;;;;;4995312;28;20037;-59
2022/06/06 01:25:52;;;;;;;18.10;14.48;;;22.50;75.40;;;;;;5006942;28;20028;-58
2022/06/06 01:28:36;;;;;;;23.67;13.85;;;22.40;76.00;;;;;;5014547;28;20057;-59
2022/06/06 01:31:07;;;;;;;20.55;14.02;;;22.40;76.50;;;;;;5014261;28;20026;-58
2022/06/06 01:33:51;;;;;;;21.80;13.23;;;22.30;78.40;;;;;;5014537;28;20482;-58
2022/06/06 01:36:17;;;;;;;27.63;15.52;;;22.30;79.60;;;;;;5005795;28;20026;-59
2022/06/06 01:38:43;;;;;;;23.65;13.73;;;22.10;79.00;;;;;;5012702;28;20038;-60
2022/06/06 01:41:11;;;;;;;23.53;14.23;;;22.00;79.70;;;;;;4995833;28;20364;-60
2022/06/06 01:43:57;;;;;;;18.05;12.70;;;22.10;80.50;;;;;;4992898;28;20030;-60
2022/06/06 01:46:28;;;;;;;23.98;13.30;;;22.00;80.30;;;;;;5004951;28;20500;-60
2022/06/06 01:48:56;;;;;;;19.40;12.90;;;22.00;79.90;;;;;;5009883;28;20395;-59
2022/06/06 01:51:28;;;;;;;19.00;13.43;;;22.00;80.60;;;;;;5004660;28;20380;-60
2022/06/06 01:53:55;;;;;;;18.55;13.48;;;21.90;81.40;;;;;;4994554;28;20030;-60
2022/06/06 01:56:25;;;;;;;23.70;13.15;;;21.80;81.40;;;;;;4994139;28;20045;-60
2022/06/06 01:58:51;;;;;;;18.80;12.88;;;21.80;81.80;;;;;;4994441;28;20150;-60
2022/06/06 02:01:17;;;;;;;28.77;13.53;;;21.80;80.70;;;;;;5008819;28;20117;-58
2022/06/06 02:03:43;;;;;;;18.57;12.30;;;21.80;81.10;;;;;;5003161;28;20503;-60
2022/06/06 02:06:09;;;;;;;18.65;12.73;;;21.70;81.10;;;;;;5009487;28;20037;-59
2022/06/06 02:08:35;;;;;;;17.73;11.60;;;21.60;76.80;;;;;;5003726;28;20026;-60
2022/06/06 02:11:03;;;;;;;25.53;13.00;;;21.60;76.20;;;;;;4998326;28;20045;-60
2022/06/06 02:13:28;;;;;;;20.90;13.38;;;21.50;76.10;;;;;;5013565;28;20030;-59
2022/06/06 02:15:55;;;;;;;18.80;11.93;;;21.50;76.10;;;;;;5013275;28;20441;-59
2022/06/06 02:18:24;;;;;;;20.35;13.48;;;21.50;75.90;;;;;;5005237;28;20372;-60
2022/06/06 02:20:50;;;;;;;20.23;13.23;;;21.50;76.00;;;;;;4989379;28;20034;-59
2022/06/06 02:23:16;;;;;;;22.67;12.63;;;21.40;76.00;;;;;;5005396;28;20539;-60
2022/06/06 02:25:41;;;;;;;18.43;13.20;;;21.50;76.00;;;;;;5004187;28;20029;-60
2022/06/06 02:28:07;;;;;;;18.42;12.70;;;21.50;75.50;;;;;;5013607;28;20062;-60
2022/06/06 02:30:36;;;;;;;19.73;11.88;;;21.60;75.40;;;;;;5012722;28;20058;-60
2022/06/06 02:33:02;;;;;;;23.10;12.70;;;21.60;75.10;;;;;;4985097;28;20105;-61
2022/06/06 02:35:38;;;;;;;23.13;13.55;;;21.50;75.00;;;;;;5013032;28;20306;-60
2022/06/06 02:38:05;;;;;;;23.30;13.93;;;21.40;75.00;;;;;;4997975;28;20358;-59
2022/06/06 02:40:31;;;;;;;21.77;13.25;;;21.40;75.00;;;;;;4992491;28;20031;-60
2022/06/06 02:42:59;;;;;;;20.48;13.25;;;21.30;75.50;;;;;;4987783;28;20046;-60
2022/06/06 02:45:25;;;;;;;21.77;12.93;;;21.30;76.20;;;;;;4998796;28;20038;-59
2022/06/06 02:47:54;;;;;;;22.43;12.50;;;21.30;76.20;;;;;;4994597;28;20398;-60
2022/06/06 02:50:25;;;;;;;22.02;12.90;;;21.30;76.30;;;;;;4995521;28;20773;-59
2022/06/06 02:52:50;;;;;;;17.98;12.52;;;21.40;76.90;;;;;;5002681;28;20034;-60
2022/06/06 02:55:16;;;;;;;21.97;13.00;;;21.40;76.10;;;;;;5000496;28;20021;-60
2022/06/06 02:57:48;;;;;;;22.33;14.17;;;21.50;75.90;;;;;;5012972;28;20026;-58
2022/06/06 03:00:24;;;;;;;21.38;12.25;;;21.50;75.30;;;;;;5009251;28;20029;-60
2022/06/06 03:02:50;;;;;;;26.30;12.13;;;21.50;75.30;;;;;;4989185;28;20121;-60
2022/06/06 03:05:17;;;;;;;25.40;13.03;;;21.50;75.40;;;;;;5010103;28;20113;-59
2022/06/06 03:08:05;;;;;;;17.10;12.10;;;21.50;75.60;;;;;;5012843;28;20033;-59
2022/06/06 03:10:53;;;;;;;18.83;12.13;;;21.50;75.80;;;;;;5012700;28;20113;-60
2022/06/06 03:13:35;;;;;;;18.73;12.15;;;21.50;76.00;;;;;;5010134;28;20022;-58
2022/06/06 03:22:09;;;;;;;25.02;14.00;;;21.30;75.90;;;;;;5007838;28;20045;-60
2022/06/06 03:24:46;;;;;;;18.38;13.23;;;21.30;76.10;;;;;;5006560;28;20111;-60
2022/06/06 03:27:26;;;;;;;20.30;11.90;;;21.20;76.60;;;;;;5012482;28;20490;-59
2022/06/06 03:30:23;;;;;;;18.67;12.38;;;21.10;76.70;;;;;;4998603;28;20513;-59
2022/06/06 03:33:26;;;;;;;19.92;12.50;;;21.20;76.90;;;;;;4942738;28;20034;-60
2022/06/06 03:36:13;;;;;;;21.23;12.60;;;21.10;77.40;;;;;;4973249;28;20034;-60
2022/06/06 03:38:56;;;;;;;16.40;11.20;;;21.00;77.60;;;;;;5005355;28;20084;-59
2022/06/06 03:41:40;;;;;;;18.50;12.52;;;21.00;78.30;;;;;;4991265;28;20085;-59
2022/06/06 03:44:22;;;;;;;17.30;11.90;;;21.00;78.30;;;;;;4973151;28;20472;-60
2022/06/06 03:46:54;;;;;;;23.67;13.32;;;21.00;78.50;;;;;;4973088;28;20403;-60
2022/06/06 03:49:40;;;;;;;20.15;12.00;;;21.00;78.80;;;;;;4977152;28;20488;-60
2022/06/06 03:52:12;;;;;;;22.02;13.07;;;21.00;78.60;;;;;;5001712;28;20096;-59
2022/06/06 03:54:41;;;;;;;25.35;13.88;;;21.00;78.20;;;;;;4991996;28;20038;-58
2022/06/06 03:57:18;;;;;;;18.52;12.05;;;21.00;78.40;;;;;;4996737;28;20068;-60
2022/06/06 03:59:47;;;;;;;19.05;12.20;;;21.00;78.30;;;;;;5011666;28;20403;-60
2022/06/06 04:02:32;;;;;;;20.48;12.35;;;20.90;78.40;;;;;;5009585;28;20022;-60
2022/06/06 04:05:09;;;;;;;16.77;12.55;;;21.00;78.70;;;;;;5011181;28;20101;-60
2022/06/06 04:07:35;;;;;;;17.20;12.18;;;21.00;78.50;;;;;;5010623;28;20034;-60
2022/06/06 04:10:03;;;;;;;15.23;11.50;;;21.10;78.60;;;;;;5012079;28;20026;-60
2022/06/06 04:12:53;;;;;;;18.83;12.00;;;21.10;78.40;;;;;;5011765;28;20181;-60
2022/06/06 04:15:28;;;;;;;17.10;13.07;;;21.20;78.50;;;;;;5011979;28;20030;-60
2022/06/06 04:18:09;;;;;;;15.70;11.98;;;21.20;78.30;;;;;;5011886;28;20041;-59
2022/06/06 04:21:06;;;;;;;22.85;13.18;;;21.20;78.60;;;;;;5010412;28;20414;-60
2022/06/06 04:23:32;;;;;;;17.30;12.35;;;21.20;78.50;;;;;;4994347;28;20061;-60
2022/06/06 04:26:03;;;;;;;16.37;13.33;;;21.10;78.60;;;;;;5011589;28;20069;-58
2022/06/06 04:28:34;;;;;;;28.40;13.10;;;21.00;79.50;;;;;;5011601;28;20359;-59
2022/06/06 04:31:13;;;;;;;17.92;12.85;;;21.00;79.40;;;;;;5011798;28;20026;-60
2022/06/06 04:33:57;;;;;;;19.40;13.40;;;21.00;79.80;;;;;;5011676;28;20060;-60
2022/06/06 04:36:37;;;;;;;17.77;12.45;;;20.90;79.70;;;;;;5011631;28;20032;-62
2022/06/06 04:39:17;;;;;;;19.17;13.05;;;20.90;79.90;;;;;;5011519;28;20398;-59
2022/06/06 04:41:50;;;;;;;17.75;12.07;;;21.10;79.80;;;;;;5011920;28;20034;-60
2022/06/06 04:44:25;;;;;;;17.17;12.73;;;21.10;79.40;;;;;;5011658;28;20483;-60
2022/06/06 04:46:58;;;;;;;14.10;11.82;;;21.30;78.90;;;;;;5011521;28;20032;-60
2022/06/06 04:49:28;;;;;;;16.80;12.23;;;21.30;78.50;;;;;;5011370;28;20076;-57
2022/06/06 04:51:54;;;;;;;20.48;13.32;;;21.30;78.50;;;;;;5011451;28;20030;-60
2022/06/06 04:54:23;;;;;;;23.55;13.38;;;21.30;79.00;;;;;;5011505;28;20441;-60
2022/06/06 04:56:51;;;;;;;18.48;12.77;;;21.40;79.00;;;;;;5011273;28;20037;-61
2022/06/06 04:59:21;;;;;;;19.08;12.63;;;21.60;78.80;;;;;;5011368;28;20546;-60
2022/06/06 05:01:47;;;;;;;19.20;13.70;;;21.60;78.60;;;;;;5009864;28;20022;-60
2022/06/06 05:04:13;;;;;;;17.97;13.40;;;21.70;78.00;;;;;;5010119;28;20033;-60
2022/06/06 05:06:59;;;;;;;18.43;13.83;;;21.80;77.70;;;;;;5011206;28;20025;-60
2022/06/06 05:09:27;;;;;;;22.60;14.52;;;21.80;77.70;;;;;;5011392;28;20038;-60
2022/06/06 05:12:23;;;;;;;20.48;13.32;;;21.80;78.20;;;;;;5011278;28;20030;-61
2022/06/06 05:14:48;;;;;;;20.75;13.48;;;21.80;78.00;;;;;;5011172;28;20034;-60
2022/06/06 05:17:32;;;;;;;25.17;13.83;;;21.90;78.10;;;;;;5010252;28;20362;-59
2022/06/06 05:20:07;;;;;;;21.35;14.30;;;21.90;77.80;;;;;;5014832;28;20061;-60
2022/06/06 05:22:35;;;;;;;18.83;14.38;;;22.00;78.00;;;;;;5013394;28;20030;-59
2022/06/06 05:25:19;;;;;;;19.38;14.85;;;22.00;77.40;;;;;;5014563;28;20057;-59
2022/06/06 05:27:50;;;;;;;18.48;14.57;;;22.10;77.70;;;;;;5014583;28;20091;-60
2022/06/06 05:30:45;;;;;;;26.75;15.70;;;22.10;77.80;;;;;;5014631;28;20026;-60
2022/06/06 05:33:24;;;;;;;18.00;14.55;;;22.20;77.30;;;;;;5014520;28;20061;-60
2022/06/06 05:36:12;;;;;;;19.27;14.77;;;22.20;76.50;;;;;;5014620;28;20026;-60
2022/06/06 05:38:52;;;;;;;23.47;13.90;;;22.20;75.00;;;;;;5014596;28;20313;-60
2022/06/06 05:41:33;;;;;;;17.88;15.25;;;22.10;74.70;;;;;;5014157;28;20022;-60
2022/06/06 05:44:46;;;;;;;21.63;14.52;;;22.10;74.90;;;;;;5013057;28;20038;-60
2022/06/06 05:47:14;;;;;;;16.75;14.23;;;22.20;75.10;;;;;;5007037;28;20521;-61
2022/06/06 05:50:14;;;;;;;20.83;14.52;;;22.40;74.90;;;;;;5014136;28;20026;-60
2022/06/06 05:52:48;;;;;;;18.70;15.43;;;22.50;74.70;;;;;;5014710;28;20026;-60
2022/06/06 05:55:20;;;;;;;19.65;16.02;;;22.60;73.70;;;;;;5013976;28;20036;-59
2022/06/06 05:58:10;;;;;;;21.85;15.82;;;22.70;74.50;;;;;;5014352;28;20022;-59
2022/06/06 06:00:46;;;;;;;21.13;15.32;;;22.80;73.10;;;;;;5014023;28;20040;-60
2022/06/06 06:03:26;;;;;;;24.48;14.82;;;22.70;73.00;;;;;;5013902;28;20042;-60
2022/06/06 06:06:04;;;;;;;27.10;16.05;;;22.70;73.10;;;;;;5014069;28;20021;-60
2022/06/06 06:09:19;;;;;;;18.52;15.10;;;22.80;72.80;;;;;;5014046;28;20025;-61
2022/06/06 06:12:01;;;;;;;19.75;13.57;;;22.90;72.80;;;;;;4978118;28;20038;-61
2022/06/06 06:14:55;;;;;;;21.30;13.25;;;22.90;72.50;;;;;;5013773;28;20018;-61
2022/06/06 06:17:25;;;;;;;18.58;13.90;;;23.00;71.50;;;;;;5013752;28;20033;-60
2022/06/06 06:20:05;;;;;;;19.67;14.85;;;23.00;72.10;;;;;;5012129;28;20118;-59
2022/06/06 06:22:36;;;;;;;20.35;15.02;;;23.10;70.70;;;;;;5013645;28;20026;-60
2022/06/06 06:25:04;;;;;;;22.75;15.10;;;23.00;71.50;;;;;;5013484;28;20018;-60
2022/06/06 06:27:35;;;;;;;28.58;16.15;;;23.10;72.00;;;;;;5012164;28;20029;-61
2022/06/06 06:30:06;;;;;;;20.23;14.77;;;23.10;71.70;;;;;;5013491;28;20030;-60
2022/06/06 06:32:38;;;;;;;21.75;15.32;;;23.20;71.40;;;;;;5013469;28;20057;-60
2022/06/06 06:35:15;;;;;;;19.27;14.20;;;23.30;71.40;;;;;;5013398;28;20036;-61
2022/06/06 06:38:22;;;;;;;20.58;14.60;;;23.40;70.90;;;;;;5013372;28;20486;-60
2022/06/06 06:40:57;;;;;;;24.08;14.98;;;23.50;70.30;;;;;;4949455;28;20092;-60
2022/06/06 06:43:47;;;;;;;21.67;14.48;;;23.60;71.20;;;;;;5013209;28;20041;-61
2022/06/06 06:46:36;;;;;;;19.42;15.75;;;23.70;70.50;;;;;;5013147;28;20025;-60
2022/06/06 06:49:11;;;;;;;22.25;16.20;;;23.70;71.00;;;;;;5013065;28;20475;-61
2022/06/06 06:51:43;;;;;;;23.20;15.68;;;23.70;71.10;;;;;;5013145;28;20494;-60
2022/06/06 06:54:32;;;;;;;19.58;16.30;;;23.70;71.40;;;;;;5013087;28;20624;-60
2022/06/06 06:57:07;;;;;;;25.17;17.23;;;23.80;70.80;;;;;;5012945;28;20434;-60
2022/06/06 06:59:41;;;;;;;24.58;17.38;;;23.90;71.10;;;;;;5012870;28;20030;-60
2022/06/06 07:08:39;;;;;;;19.05;13.32;;;24.20;68.70;;;;;;5013151;28;20497;-60
2022/06/06 07:11:14;;;;;;;21.20;12.85;;;24.20;68.70;;;;;;5012770;28;20033;-60
2022/06/06 07:13:48;;;;;;;18.55;12.82;;;24.20;68.90;;;;;;5012663;28;20072;-60
2022/06/06 07:16:26;;;;;;;29.05;14.45;;;24.30;69.30;;;;;;5011152;28;20030;-60
2022/06/06 07:19:07;;;;;;;21.98;11.50;;;24.40;69.00;;;;;;5012479;28;20499;-60
2022/06/06 07:21:34;;;;;;;19.15;11.48;;;24.50;69.00;;;;;;5012505;28;20395;-60
2022/06/06 07:24:04;;;;;;;23.30;13.93;;;24.60;69.00;;;;;;5011210;28;20501;-61
2022/06/06 07:26:32;;;;;;;16.83;12.20;;;24.60;68.70;;;;;;5012360;28;20441;-61
2022/06/06 07:28:58;;;;;;;15.95;12.57;;;24.70;69.60;;;;;;5012426;28;20032;-59
2022/06/06 07:31:33;;;;;;;20.70;13.93;;;24.70;69.60;;;;;;5012418;28;20125;-61
2022/06/06 07:34:32;;;;;;;18.75;13.13;;;24.80;68.90;;;;;;5012365;28;20030;-59
2022/06/06 07:37:22;;;;;;;19.67;11.10;;;24.90;69.70;;;;;;5012025;28;20030;-60
2022/06/06 07:40:15;;;;;;;19.52;11.27;;;24.90;70.50;;;;;;5010665;28;20502;-60
2022/06/06 07:42:56;;;;;;;17.85;11.18;;;24.90;70.50;;;;;;5012147;28;20116;-59
2022/06/06 07:45:48;;;;;;;19.67;11.70;;;25.00;70.70;;;;;;5012058;28;20033;-60
2022/06/06 07:48:26;;;;;;;19.70;12.50;;;25.10;69.70;;;;;;5012169;28;20026;-60
2022/06/06 07:50:52;;;;;;;18.35;12.18;;;25.00;69.80;;;;;;5012422;28;20456;-61
2022/06/06 07:53:35;;;;;;;17.33;12.60;;;25.10;70.10;;;;;;5012078;28;20053;-61
2022/06/06 07:56:04;;;;;;;19.92;12.73;;;25.20;69.80;;;;;;5010601;28;20065;-60
2022/06/06 07:58:49;;;;;;;24.48;13.57;;;25.30;70.00;;;;;;5012020;28;20026;-60
2022/06/06 08:01:44;;;;;;;20.20;13.35;;;25.30;69.50;;;;;;5012039;28;20146;-61
2022/06/06 08:04:15;;;;;;;21.17;12.05;;;25.30;69.90;;;;;;5012048;28;20053;-61
2022/06/06 08:06:46;;;;;;;23.50;13.07;;;25.30;70.60;;;;;;5011875;28;20447;-61
2022/06/06 08:09:27;;;;;;;21.15;11.95;;;25.50;67.60;;;;;;5011879;28;20174;-59
2022/06/06 08:12:01;;;;;;;27.65;13.48;;;25.60;80.90;;;;;;5011987;28;20022;-59
2022/06/06 08:14:50;;;;;;;20.77;11.40;;;25.60;67.60;;;;;;5011798;28;20034;-60
2022/06/06 08:17:44;;;;;;;20.52;12.02;;;25.70;69.70;;;;;;5011889;28;20026;-59
2022/06/06 08:20:29;;;;;;;23.67;11.40;;;25.70;71.40;;;;;;5011808;28;20030;-60
2022/06/06 08:22:59;;;;;;;20.48;12.57;;;25.80;74.70;;;;;;5010181;28;20049;-59
2022/06/06 08:25:25;;;;;;;25.00;11.90;;;25.80;72.60;;;;;;5011644;28;20030;-60
2022/06/06 08:27:53;;;;;;;46.07;28.00;;;25.90;70.30;;;;;;5011685;28;20029;-60
2022/06/06 08:30:20;;;;;;;29.00;17.42;;;25.70;66.00;;;;;;5011726;28;20057;-58
2022/06/06 08:32:47;;;;;;;20.27;9.80;;;25.80;65.70;;;;;;5011638;28;20501;-60
2022/06/06 08:35:13;;;;;;;;;;;26.00;65.70;;;;;;5011899;28;20091;-58
2022/06/06 08:37:42;;;;;;;21.13;12.27;;;26.00;65.40;;;;;;5026725;28;19968;-59
2022/06/06 08:40:39;;;;;;;23.02;10.57;;;25.90;65.20;;;;;;5011627;28;20021;-61
2022/06/06 08:43:26;;;;;;;19.83;12.10;;;26.00;65.80;;;;;;5011445;28;20034;-58
2022/06/06 08:46:16;;;;;;;20.00;12.70;;;26.10;65.00;;;;;;5011406;28;20534;-58
2022/06/06 08:49:04;;;;;;;20.75;12.27;;;26.20;65.30;;;;;;5010363;28;20030;-59
2022/06/06 08:51:41;;;;;;;16.13;10.90;;;26.20;65.80;;;;;;5011510;28;20037;-59
2022/06/06 08:54:39;;;;;;;17.80;10.95;;;26.30;65.20;;;;;;5014841;28;20022;-60
2022/06/06 08:57:19;;;;;;;18.10;12.07;;;26.50;65.20;;;;;;5015435;28;20034;-58
2022/06/06 08:59:51;;;;;;;16.23;9.80;;;26.60;64.10;;;;;;5013914;28;20414;-60
2022/06/06 09:02:54;;;;;;;16.83;10.38;;;26.70;63.90;;;;;;5015088;28;20022;-58
2022/06/06 09:05:38;;;;;;;20.15;10.60;;;26.90;63.80;;;;;;5014783;28;20050;-59
2022/06/06 09:08:37;;;;;;;20.63;10.85;;;27.10;63.10;;;;;;5013742;28;20026;-60
2022/06/06 09:11:39;;;;;;;17.17;10.07;;;27.10;61.50;;;;;;5015302;28;20032;-57
2022/06/06 09:14:21;;;;;;;23.33;11.38;;;27.20;60.80;;;;;;5015060;28;20178;-60
2022/06/06 09:17:44;;;;;;;17.17;9.05;;;27.20;61.10;;;;;;5014827;28;20022;-60
2022/06/06 09:20:42;;;;;;;17.95;9.88;;;27.40;59.80;;;;;;4954052;29;20114;-59
2022/06/06 09:23:35;;;;;;;18.42;9.65;;;27.60;60.10;;;;;;4954070;29;20027;-60
2022/06/06 09:26:23;;;;;;;17.83;10.18;;;27.70;60.00;;;;;;5014505;28;20034;-59
2022/06/06 09:28:52;;;;;;;20.17;11.88;;;27.90;59.10;;;;;;5014692;28;20022;-56
2022/06/06 09:31:17;;;;;;;14.25;11.07;;;27.80;58.60;;;;;;5014618;28;20029;-59
2022/06/06 09:34:07;;;;;;;16.50;10.53;;;27.80;58.40;;;;;;5014604;28;20037;-57
2022/06/06 09:36:46;;;;;;;17.63;7.07;;;27.80;58.10;;;;;;5014428;28;20390;-59
2022/06/06 09:39:33;;;;;;;12.25;5.97;;;27.70;55.90;;;;;;5014451;28;20033;-60
2022/06/06 09:42:17;;;;;;;11.27;5.90;;;27.70;56.20;;;;;;5014181;28;20379;-60
2022/06/06 09:45:29;;;;;;;12.70;5.80;;;27.80;55.70;;;;;;5014559;28;20105;-58
2022/06/06 09:48:13;;;;;;;10.05;5.20;;;27.90;57.60;;;;;;5014387;28;20029;-59
2022/06/06 09:50:48;;;;;;;18.85;6.97;;;28.00;56.40;;;;;;5014171;28;20029;-59
2022/06/06 09:53:43;;;;;;;14.68;6.30;;;28.10;57.00;;;;;;5014237;28;20118;-60
2022/06/06 09:59:22;;;;;;;15.65;7.00;;;28.30;56.90;;;;;;5014371;28;20080;-58
2022/06/06 10:02:15;;;;;;;17.20;8.60;;;28.20;56.70;;;;;;5014094;28;20026;-59
2022/06/06 10:04:50;;;;;;;12.82;7.97;;;28.30;56.90;;;;;;5013548;28;20022;-59
2022/06/06 10:07:34;;;;;;;16.67;7.78;;;28.30;55.00;;;;;;5012438;28;20509;-59
2022/06/06 10:10:23;;;;;;;15.63;7.38;;;28.20;55.80;;;;;;5013849;28;20121;-58
2022/06/06 10:13:07;;;;;;;13.13;7.57;;;28.30;56.80;;;;;;5013803;28;20084;-57
2022/06/06 10:15:52;;;;;;;13.57;6.82;;;28.50;56.70;;;;;;5013594;28;20025;-60
2022/06/06 10:18:37;;;;;;;16.15;6.72;;;28.70;56.40;;;;;;5013777;28;20051;-59
2022/06/06 10:21:11;;;;;;;14.45;5.30;;;28.90;54.90;;;;;;5013721;28;20026;-60
2022/06/06 10:23:58;;;;;;;15.45;6.40;;;29.10;53.90;;;;;;5013633;28;20525;-59
2022/06/06 10:27:01;;;;;;;11.82;5.85;;;29.10;53.80;;;;;;5004236;28;20082;-59
2022/06/06 10:32:45;;;;;;;14.40;4.00;;;29.30;51.50;;;;;;5013726;28;20037;-59
2022/06/06 10:35:29;;;;;;;13.70;3.45;;;29.40;50.90;;;;;;5004514;28;20026;-59
2022/06/06 10:38:23;;;;;;;10.15;3.10;;;29.40;50.10;;;;;;4993099;28;20030;-60
2022/06/06 10:41:07;;;;;;;17.13;4.55;;;29.50;48.80;;;;;;4993683;28;20023;-59
2022/06/06 10:43:39;;;;;;;12.82;4.20;;;29.40;49.50;;;;;;5002296;28;20042;-64
2022/06/06 10:46:23;;;;;;;10.20;4.80;;;29.40;50.40;;;;;;4989510;28;20045;-58
2022/06/06 10:49:12;;;;;;;12.20;3.25;;;29.50;50.20;;;;;;5012430;28;20084;-63
2022/06/06 10:51:56;;;;;;;7.63;2.78;;;29.60;49.60;;;;;;5007672;28;20029;-60
2022/06/06 10:54:41;;;;;;;6.53;2.50;;;29.70;49.70;;;;;;5002410;28;20037;-61
2022/06/06 10:57:25;;;;;;;7.30;3.03;;;29.80;48.80;;;;;;5010514;28;20025;-60
2022/06/06 11:00:06;;;;;;;6.15;2.28;;;29.90;45.00;;;;;;5000447;28;20053;-61
2022/06/06 11:02:40;;;;;;;12.82;2.80;;;29.90;46.80;;;;;;4994285;28;20023;-60
2022/06/06 11:05:31;;;;;;;6.85;2.38;;;29.90;47.20;;;;;;4992635;28;20454;-61
2022/06/06 11:08:22;;;;;;;6.22;2.92;;;30.10;47.70;;;;;;4998494;28;20026;-60
2022/06/06 11:11:06;;;;;;;4.60;1.95;;;30.20;45.10;;;;;;4996879;28;20428;-61
2022/06/06 11:13:38;;;;;;;8.32;2.00;;;30.20;43.90;;;;;;4992262;28;20034;-60
2022/06/06 11:16:30;;;;;;;7.32;2.00;;;30.20;44.40;;;;;;4975272;28;20038;-61
2022/06/06 11:19:17;;;;;;;10.63;2.47;;;30.20;42.90;;;;;;4986877;28;20080;-60
2022/06/06 11:22:09;;;;;;;4.45;2.13;;;30.30;45.10;;;;;;4999870;28;20073;-60
2022/06/06 11:25:06;;;;;;;7.15;2.60;;;30.60;44.70;;;;;;4979349;28;20034;-61
2022/06/06 11:27:35;;;;;;;9.23;2.50;;;30.80;43.80;;;;;;4995680;28;20034;-60
2022/06/06 11:30:26;;;;;;;7.80;2.63;;;30.90;43.70;;;;;;4991344;28;20118;-58
2022/06/06 11:33:19;;;;;;;8.70;2.13;;;30.80;42.10;;;;;;4992804;28;20054;-60
2022/06/06 11:36:02;;;;;;;6.10;2.38;;;30.80;42.20;;;;;;5000390;28;20045;-58
2022/06/06 11:38:46;;;;;;;6.32;1.63;;;30.70;43.60;;;;;;4979680;28;20059;-60
2022/06/06 11:41:48;;;;;;;6.43;2.08;;;30.80;42.70;;;;;;4992321;28;20034;-59
2022/06/06 11:44:37;;;;;;;12.98;2.88;;;31.00;42.90;;;;;;4992510;28;20033;-59
2022/06/06 11:47:21;;;;;;;9.43;2.40;;;31.10;41.90;;;;;;4993371;28;20475;-61
2022/06/06 11:50:02;;;;;;;4.72;1.60;;;31.10;40.50;;;;;;5008585;28;20508;-61
2022/06/06 11:52:46;;;;;;;3.42;1.70;;;31.10;40.40;;;;;;5011901;28;20030;-61
2022/06/06 11:55:50;;;;;;;5.55;2.28;;;31.00;41.00;;;;;;4997508;28;20141;-60
2022/06/06 11:58:30;;;;;;;13.40;2.17;;;31.00;40.50;;;;;;4992406;28;20040;-61
2022/06/06 12:00:56;;;;;;;7.45;2.67;;;31.00;41.20;;;;;;4993373;28;20049;-62
2022/06/06 12:03:46;;;;;;;7.10;2.00;;;31.10;42.00;;;;;;5004084;28;20025;-61
2022/06/06 12:06:33;;;;;;;5.53;2.10;;;31.20;41.30;;;;;;5010187;28;20427;-61
2022/06/06 12:09:08;;;;;;;6.05;2.20;;;31.40;43.00;;;;;;5011901;28;20026;-61
2022/06/06 12:12:05;;;;;;;8.15;2.85;;;31.50;43.60;;;;;;4995811;28;20142;-61
2022/06/06 12:15:04;;;;;;;8.10;2.45;;;31.80;42.50;;;;;;4992227;28;20101;-61
2022/06/06 12:17:50;;;;;;;8.57;2.20;;;31.70;42.00;;;;;;4992166;28;20034;-61
2022/06/06 12:20:16;;;;;;;7.95;3.08;;;31.80;43.10;;;;;;4996116;28;20439;-61
2022/06/06 12:22:45;;;;;;;8.23;2.65;;;32.00;42.10;;;;;;5010365;28;20085;-61
2022/06/06 12:25:19;;;;;;;6.88;2.28;;;32.20;41.60;;;;;;5007975;28;20451;-61
2022/06/06 12:27:51;;;;;;;9.32;2.72;;;32.40;42.20;;;;;;4995049;28;20053;-61
2022/06/06 12:30:38;;;;;;;9.50;2.65;;;32.70;40.70;;;;;;4999786;28;20037;-61
2022/06/06 12:33:31;;;;;;;7.18;2.85;;;32.90;39.10;;;;;;5014087;28;20034;-61
2022/06/06 12:36:08;;;;;;;8.23;2.75;;;32.90;40.90;;;;;;4968565;28;20115;-61
2022/06/06 12:39:01;;;;;;;14.98;2.70;;;33.00;40.40;;;;;;4995941;28;20109;-61
2022/06/06 12:41:55;;;;;;;11.70;3.00;;;33.00;39.90;;;;;;5006750;28;20044;-62
2022/06/06 12:44:45;;;;;;;7.40;2.60;;;32.90;39.30;;;;;;4995939;28;20069;-61
2022/06/06 12:47:35;;;;;;;10.88;4.05;;;32.80;39.90;;;;;;5011409;28;20034;-61
2022/06/06 12:51:03;;;;;;;9.50;3.45;;;32.70;40.20;;;;;;4997699;28;20025;-61
2022/06/06 12:53:58;;;;;;;9.07;2.60;;;32.60;39.90;;;;;;4927817;29;20170;-62
2022/06/06 12:56:50;;;;;;;8.65;3.53;;;32.60;41.40;;;;;;4916310;29;20424;-62
2022/06/06 12:59:17;;;;;;;10.73;3.45;;;32.80;42.20;;;;;;5015134;28;20130;-62
2022/06/06 13:02:03;;;;;;;9.23;2.85;;;33.00;42.40;;;;;;5008086;28;20471;-61
2022/06/06 13:04:34;;;;;;;9.73;3.83;;;33.20;41.70;;;;;;4995549;28;20027;-61
2022/06/06 13:07:12;;;;;;;14.27;4.63;;;33.40;42.50;;;;;;5011906;28;20022;-61
2022/06/06 13:10:07;;;;;;;14.35;4.40;;;33.50;41.70;;;;;;5015082;28;20038;-61
2022/06/06 13:13:11;;;;;;;12.68;3.95;;;33.60;40.90;;;;;;5008123;28;20120;-61
2022/06/06 13:16:06;;;;;;;11.32;4.40;;;34.00;41.40;;;;;;5006603;28;20468;-61
2022/06/06 13:18:47;;;;;;;12.30;3.88;;;34.60;41.20;;;;;;4995054;28;20380;-62
2022/06/06 13:21:38;;;;;;;18.95;4.80;;;35.80;39.20;;;;;;4996988;28;20022;-61
2022/06/06 13:24:22;;;;;;;16.88;4.40;;;37.40;36.80;;;;;;5014751;28;20127;-62
2022/06/06 13:26:52;;;;;;;16.13;4.47;;;38.80;35.30;;;;;;4996767;28;20034;-62
2022/06/06 13:29:27;;;;;;;16.88;5.55;;;40.10;34.40;;;;;;4996003;28;20041;-62
2022/06/06 13:32:21;;;;;;;11.52;3.90;;;41.40;32.90;;;;;;4993458;28;20022;-62
2022/06/06 13:34:57;;;;;;;15.13;6.35;;;;;;;;;;5006498;28;20082;-62
2022/06/06 13:37:36;;;;;;;15.93;4.60;;;42.30;31.60;;;;;;5004788;28;20026;-62
2022/06/06 13:40:32;;;;;;;12.57;4.07;;;44.10;29.70;;;;;;4995224;28;20069;-63
2022/06/06 13:43:18;;;;;;;15.77;4.43;;;;;;;;;;4994729;28;20031;-63
2022/06/06 13:46:08;;;;;;;14.55;3.90;;;45.60;29.10;;;;;;4994672;28;20443;-62
2022/06/06 13:49:04;;;;;;;9.35;3.85;;;46.10;28.50;;;;;;4996594;28;20033;-63
2022/06/06 13:51:35;;;;;;;9.02;4.07;;;46.90;28.00;;;;;;4993564;28;20037;-63
2022/06/06 13:54:10;;;;;;;14.15;4.60;;;47.70;27.40;;;;;;4996739;28;20109;-63